sensor_id;sensor_type;location;lat;lon;timestamp;P1;durP1;ratioP1;P2;durP2;ratioP2
13406;SDS011;6774;48.208;10.766;2022-07-23T00:01:33;7.57;;;7.07;;
13406;SDS011;6774;48.208;10.766;2022-07-23T00:04:01;7.57;;;7.13;;
13406;SDS011;6774;48.208;10.766;2022-07-23T00:06:29;6.63;;;6.23;;
13406;SDS011;6774;48.208;10.766;2022-07-23T00:08:58;5.87;;;5.57;;
13406;SDS011;6774;48.208;10.766;2022-07-23T00:11:27;11.00;;;9.93;;
13406;SDS011;6774;48.208;10.766;2022-07-23T00:13:55;7.30;;;6.70;;
13406;SDS011;6774;48.208;10.766;2022-07-23T00:16:25;6.53;;;5.97;;
13406;SDS011;6774;48.208;10.766;2022-07-23T00:18:52;5.37;;;4.97;;
13406;SDS011;6774;48.208;10.766;2022-07-23T00:21:20;6.00;;;5.53;;
13406;SDS011;6774;48.208;10.766;2022-07-23T00:23:48;8.60;;;6.60;;
13406;SDS011;6774;48.208;10.766;2022-07-23T00:26:16;6.00;;;5.30;;
13406;SDS011;6774;48.208;10.766;2022-07-23T00:28:45;6.40;;;5.87;;
13406;SDS011;6774;48.208;10.766;2022-07-23T00:31:13;5.87;;;5.57;;
13406;SDS011;6774;48.208;10.766;2022-07-23T00:33:41;8.23;;;6.97;;
13406;SDS011;6774;48.208;10.766;2022-07-23T00:36:08;13.17;;;8.50;;
13406;SDS011;6774;48.208;10.766;2022-07-23T00:38:36;8.23;;;7.63;;
13406;SDS011;6774;48.208;10.766;2022-07-23T00:41:04;9.27;;;6.90;;
13406;SDS011;6774;48.208;10.766;2022-07-23T00:43:33;12.23;;;9.87;;
13406;SDS011;6774;48.208;10.766;2022-07-23T00:46:02;13.50;;;9.33;;
13406;SDS011;6774;48.208;10.766;2022-07-23T00:48:30;11.83;;;9.67;;
13406;SDS011;6774;48.208;10.766;2022-07-23T00:50:58;16.67;;;8.97;;
13406;SDS011;6774;48.208;10.766;2022-07-23T00:53:26;9.87;;;8.90;;
13406;SDS011;6774;48.208;10.766;2022-07-23T00:55:54;9.20;;;7.33;;
13406;SDS011;6774;48.208;10.766;2022-07-23T00:58:22;7.20;;;6.50;;
13406;SDS011;6774;48.208;10.766;2022-07-23T01:00:50;7.63;;;6.93;;
13406;SDS011;6774;48.208;10.766;2022-07-23T01:03:19;9.43;;;8.50;;
13406;SDS011;6774;48.208;10.766;2022-07-23T01:05:48;8.10;;;7.37;;
13406;SDS011;6774;48.208;10.766;2022-07-23T01:08:16;6.53;;;6.23;;
13406;SDS011;6774;48.208;10.766;2022-07-23T01:10:48;5.73;;;5.33;;
13406;SDS011;6774;48.208;10.766;2022-07-23T01:13:16;8.93;;;8.33;;
13406;SDS011;6774;48.208;10.766;2022-07-23T01:15:44;7.93;;;7.20;;
13406;SDS011;6774;48.208;10.766;2022-07-23T01:18:12;8.33;;;7.70;;
13406;SDS011;6774;48.208;10.766;2022-07-23T01:20:41;7.43;;;6.83;;
13406;SDS011;6774;48.208;10.766;2022-07-23T01:23:11;8.17;;;7.60;;
13406;SDS011;6774;48.208;10.766;2022-07-23T01:25:48;7.57;;;7.17;;
13406;SDS011;6774;48.208;10.766;2022-07-23T01:28:17;8.53;;;6.57;;
13406;SDS011;6774;48.208;10.766;2022-07-23T01:30:45;6.60;;;6.17;;
13406;SDS011;6774;48.208;10.766;2022-07-23T01:33:13;6.63;;;5.73;;
13406;SDS011;6774;48.208;10.766;2022-07-23T01:35:41;6.20;;;5.90;;
13406;SDS011;6774;48.208;10.766;2022-07-23T01:38:13;8.43;;;6.47;;
13406;SDS011;6774;48.208;10.766;2022-07-23T01:40:42;6.90;;;6.13;;
13406;SDS011;6774;48.208;10.766;2022-07-23T01:43:12;7.90;;;7.23;;
13406;SDS011;6774;48.208;10.766;2022-07-23T01:45:42;6.70;;;6.20;;
13406;SDS011;6774;48.208;10.766;2022-07-23T01:48:12;8.77;;;6.53;;
13406;SDS011;6774;48.208;10.766;2022-07-23T01:50:51;6.50;;;6.00;;
13406;SDS011;6774;48.208;10.766;2022-07-23T01:53:39;6.50;;;5.90;;
13406;SDS011;6774;48.208;10.766;2022-07-23T01:56:07;8.33;;;7.63;;
13406;SDS011;6774;48.208;10.766;2022-07-23T01:58:35;6.50;;;6.00;;
13406;SDS011;6774;48.208;10.766;2022-07-23T02:01:04;6.47;;;5.87;;
13406;SDS011;6774;48.208;10.766;2022-07-23T02:03:32;6.67;;;5.97;;
13406;SDS011;6774;48.208;10.766;2022-07-23T02:06:01;7.77;;;7.07;;
13406;SDS011;6774;48.208;10.766;2022-07-23T02:08:29;7.30;;;6.87;;
13406;SDS011;6774;48.208;10.766;2022-07-23T02:10:58;8.40;;;7.63;;
13406;SDS011;6774;48.208;10.766;2022-07-23T02:13:26;9.40;;;8.63;;
13406;SDS011;6774;48.208;10.766;2022-07-23T02:15:59;11.77;;;10.57;;
13406;SDS011;6774;48.208;10.766;2022-07-23T02:18:28;8.00;;;7.40;;
13406;SDS011;6774;48.208;10.766;2022-07-23T02:20:56;7.60;;;7.07;;
13406;SDS011;6774;48.208;10.766;2022-07-23T02:23:23;9.23;;;8.67;;
13406;SDS011;6774;48.208;10.766;2022-07-23T02:25:52;6.70;;;6.10;;
13406;SDS011;6774;48.208;10.766;2022-07-23T02:28:21;6.70;;;6.17;;
13406;SDS011;6774;48.208;10.766;2022-07-23T02:30:49;6.10;;;5.70;;
13406;SDS011;6774;48.208;10.766;2022-07-23T02:33:18;5.30;;;4.90;;
13406;SDS011;6774;48.208;10.766;2022-07-23T02:35:46;6.00;;;5.60;;
13406;SDS011;6774;48.208;10.766;2022-07-23T02:38:14;6.67;;;6.17;;
13406;SDS011;6774;48.208;10.766;2022-07-23T02:40:42;5.40;;;5.10;;
13406;SDS011;6774;48.208;10.766;2022-07-23T02:43:10;7.33;;;5.93;;
13406;SDS011;6774;48.208;10.766;2022-07-23T02:45:40;5.53;;;4.93;;
13406;SDS011;6774;48.208;10.766;2022-07-23T02:48:08;5.43;;;5.13;;
13406;SDS011;6774;48.208;10.766;2022-07-23T02:50:41;5.30;;;5.00;;
13406;SDS011;6774;48.208;10.766;2022-07-23T02:53:11;5.93;;;5.40;;
13406;SDS011;6774;48.208;10.766;2022-07-23T02:55:41;5.90;;;5.60;;
13406;SDS011;6774;48.208;10.766;2022-07-23T02:58:09;6.47;;;5.93;;
13406;SDS011;6774;48.208;10.766;2022-07-23T03:00:37;6.27;;;5.77;;
13406;SDS011;6774;48.208;10.766;2022-07-23T03:03:06;6.70;;;6.17;;
13406;SDS011;6774;48.208;10.766;2022-07-23T03:05:35;6.53;;;6.10;;
13406;SDS011;6774;48.208;10.766;2022-07-23T03:08:04;6.13;;;5.63;;
13406;SDS011;6774;48.208;10.766;2022-07-23T03:10:35;6.50;;;6.03;;
13406;SDS011;6774;48.208;10.766;2022-07-23T03:13:03;6.10;;;5.80;;
13406;SDS011;6774;48.208;10.766;2022-07-23T03:15:31;6.63;;;6.13;;
13406;SDS011;6774;48.208;10.766;2022-07-23T03:17:59;5.17;;;4.93;;
13406;SDS011;6774;48.208;10.766;2022-07-23T03:20:29;6.80;;;6.20;;
13406;SDS011;6774;48.208;10.766;2022-07-23T03:22:57;7.07;;;6.57;;
13406;SDS011;6774;48.208;10.766;2022-07-23T03:25:27;6.27;;;5.90;;
13406;SDS011;6774;48.208;10.766;2022-07-23T03:27:55;6.17;;;5.73;;
13406;SDS011;6774;48.208;10.766;2022-07-23T03:30:26;4.97;;;4.77;;
13406;SDS011;6774;48.208;10.766;2022-07-23T03:32:54;7.60;;;5.67;;
13406;SDS011;6774;48.208;10.766;2022-07-23T03:35:22;5.27;;;4.97;;
13406;SDS011;6774;48.208;10.766;2022-07-23T03:38:10;5.80;;;5.40;;
13406;SDS011;6774;48.208;10.766;2022-07-23T03:40:39;5.93;;;5.57;;
13406;SDS011;6774;48.208;10.766;2022-07-23T03:43:07;4.70;;;4.40;;
13406;SDS011;6774;48.208;10.766;2022-07-23T03:45:34;5.30;;;5.00;;
13406;SDS011;6774;48.208;10.766;2022-07-23T03:48:03;5.93;;;5.63;;
13406;SDS011;6774;48.208;10.766;2022-07-23T03:50:31;5.47;;;5.17;;
13406;SDS011;6774;48.208;10.766;2022-07-23T03:53:01;7.27;;;6.77;;
13406;SDS011;6774;48.208;10.766;2022-07-23T03:55:33;5.57;;;5.27;;
13406;SDS011;6774;48.208;10.766;2022-07-23T03:58:01;6.87;;;6.27;;
13406;SDS011;6774;48.208;10.766;2022-07-23T04:00:28;5.20;;;5.00;;
13406;SDS011;6774;48.208;10.766;2022-07-23T04:02:56;5.03;;;4.73;;
13406;SDS011;6774;48.208;10.766;2022-07-23T04:05:24;6.33;;;5.93;;
13406;SDS011;6774;48.208;10.766;2022-07-23T04:08:01;6.33;;;5.93;;
13406;SDS011;6774;48.208;10.766;2022-07-23T04:10:30;5.03;;;4.83;;
13406;SDS011;6774;48.208;10.766;2022-07-23T04:12:59;5.07;;;4.77;;
13406;SDS011;6774;48.208;10.766;2022-07-23T04:15:27;5.50;;;5.20;;
13406;SDS011;6774;48.208;10.766;2022-07-23T04:17:56;9.13;;;5.90;;
13406;SDS011;6774;48.208;10.766;2022-07-23T04:20:34;6.20;;;5.80;;
13406;SDS011;6774;48.208;10.766;2022-07-23T04:23:06;6.50;;;5.77;;
13406;SDS011;6774;48.208;10.766;2022-07-23T04:25:36;5.60;;;5.20;;
13406;SDS011;6774;48.208;10.766;2022-07-23T04:28:06;5.50;;;5.17;;
13406;SDS011;6774;48.208;10.766;2022-07-23T04:30:34;5.47;;;5.17;;
13406;SDS011;6774;48.208;10.766;2022-07-23T04:33:02;8.10;;;7.53;;
13406;SDS011;6774;48.208;10.766;2022-07-23T04:35:35;7.03;;;6.53;;
13406;SDS011;6774;48.208;10.766;2022-07-23T04:38:13;6.60;;;6.23;;
13406;SDS011;6774;48.208;10.766;2022-07-23T04:40:42;5.33;;;5.03;;
13406;SDS011;6774;48.208;10.766;2022-07-23T04:43:12;6.37;;;5.97;;
13406;SDS011;6774;48.208;10.766;2022-07-23T04:45:44;7.80;;;7.33;;
13406;SDS011;6774;48.208;10.766;2022-07-23T04:48:13;6.13;;;5.47;;
13406;SDS011;6774;48.208;10.766;2022-07-23T04:50:42;6.07;;;5.67;;
13406;SDS011;6774;48.208;10.766;2022-07-23T04:53:21;6.63;;;6.13;;
13406;SDS011;6774;48.208;10.766;2022-07-23T04:55:52;6.67;;;6.13;;
13406;SDS011;6774;48.208;10.766;2022-07-23T04:58:22;5.93;;;5.43;;
13406;SDS011;6774;48.208;10.766;2022-07-23T05:00:50;6.77;;;6.27;;
13406;SDS011;6774;48.208;10.766;2022-07-23T05:03:18;7.70;;;7.20;;
13406;SDS011;6774;48.208;10.766;2022-07-23T05:05:46;7.93;;;7.30;;
13406;SDS011;6774;48.208;10.766;2022-07-23T05:08:16;8.30;;;7.67;;
13406;SDS011;6774;48.208;10.766;2022-07-23T05:10:49;6.53;;;5.93;;
13406;SDS011;6774;48.208;10.766;2022-07-23T05:13:18;5.33;;;5.10;;
13406;SDS011;6774;48.208;10.766;2022-07-23T05:15:51;5.43;;;5.03;;
13406;SDS011;6774;48.208;10.766;2022-07-23T05:18:19;4.80;;;4.57;;
13406;SDS011;6774;48.208;10.766;2022-07-23T05:20:47;6.50;;;6.13;;
13406;SDS011;6774;48.208;10.766;2022-07-23T05:23:18;5.50;;;4.30;;
13406;SDS011;6774;48.208;10.766;2022-07-23T05:25:48;4.37;;;4.10;;
13406;SDS011;6774;48.208;10.766;2022-07-23T05:28:16;4.93;;;4.63;;
13406;SDS011;6774;48.208;10.766;2022-07-23T05:30:49;4.27;;;3.97;;
13406;SDS011;6774;48.208;10.766;2022-07-23T05:33:19;5.13;;;4.83;;
13406;SDS011;6774;48.208;10.766;2022-07-23T05:35:47;5.77;;;5.43;;
13406;SDS011;6774;48.208;10.766;2022-07-23T05:38:25;5.50;;;5.20;;
13406;SDS011;6774;48.208;10.766;2022-07-23T05:40:56;4.60;;;4.40;;
13406;SDS011;6774;48.208;10.766;2022-07-23T05:43:25;5.53;;;5.03;;
13406;SDS011;6774;48.208;10.766;2022-07-23T05:45:55;4.87;;;4.57;;
13406;SDS011;6774;48.208;10.766;2022-07-23T05:48:24;18.83;;;7.40;;
13406;SDS011;6774;48.208;10.766;2022-07-23T05:51:18;7.40;;;6.63;;
13406;SDS011;6774;48.208;10.766;2022-07-23T05:53:48;7.13;;;6.63;;
13406;SDS011;6774;48.208;10.766;2022-07-23T05:56:20;5.57;;;5.17;;
13406;SDS011;6774;48.208;10.766;2022-07-23T05:58:48;6.33;;;5.80;;
13406;SDS011;6774;48.208;10.766;2022-07-23T06:01:19;12.80;;;7.50;;
13406;SDS011;6774;48.208;10.766;2022-07-23T06:04:05;7.07;;;6.57;;
13406;SDS011;6774;48.208;10.766;2022-07-23T06:06:37;7.37;;;5.17;;
13406;SDS011;6774;48.208;10.766;2022-07-23T06:09:06;5.77;;;5.37;;
13406;SDS011;6774;48.208;10.766;2022-07-23T06:11:34;5.00;;;4.70;;
13406;SDS011;6774;48.208;10.766;2022-07-23T06:14:02;5.47;;;4.97;;
13406;SDS011;6774;48.208;10.766;2022-07-23T06:16:54;5.93;;;5.43;;
13406;SDS011;6774;48.208;10.766;2022-07-23T06:19:22;11.20;;;6.43;;
13406;SDS011;6774;48.208;10.766;2022-07-23T06:21:51;5.77;;;5.23;;
13406;SDS011;6774;48.208;10.766;2022-07-23T06:24:19;10.23;;;5.47;;
13406;SDS011;6774;48.208;10.766;2022-07-23T06:26:48;4.87;;;4.43;;
13406;SDS011;6774;48.208;10.766;2022-07-23T06:29:16;5.60;;;5.20;;
13406;SDS011;6774;48.208;10.766;2022-07-23T06:31:44;4.63;;;4.33;;
13406;SDS011;6774;48.208;10.766;2022-07-23T06:34:14;4.40;;;4.03;;
13406;SDS011;6774;48.208;10.766;2022-07-23T06:36:42;4.17;;;3.77;;
13406;SDS011;6774;48.208;10.766;2022-07-23T06:39:11;5.20;;;4.67;;
13406;SDS011;6774;48.208;10.766;2022-07-23T06:41:42;5.50;;;4.90;;
13406;SDS011;6774;48.208;10.766;2022-07-23T06:44:16;4.47;;;4.17;;
13406;SDS011;6774;48.208;10.766;2022-07-23T06:46:46;5.47;;;5.07;;
13406;SDS011;6774;48.208;10.766;2022-07-23T06:49:16;6.50;;;6.00;;
13406;SDS011;6774;48.208;10.766;2022-07-23T06:51:43;5.47;;;3.93;;
13406;SDS011;6774;48.208;10.766;2022-07-23T06:54:11;9.60;;;6.17;;
13406;SDS011;6774;48.208;10.766;2022-07-23T06:56:39;5.33;;;4.83;;
13406;SDS011;6774;48.208;10.766;2022-07-23T06:59:09;5.50;;;5.17;;
13406;SDS011;6774;48.208;10.766;2022-07-23T07:01:37;6.47;;;5.97;;
13406;SDS011;6774;48.208;10.766;2022-07-23T07:04:05;5.43;;;5.03;;
13406;SDS011;6774;48.208;10.766;2022-07-23T07:06:35;6.07;;;5.77;;
13406;SDS011;6774;48.208;10.766;2022-07-23T07:09:03;6.17;;;5.77;;
13406;SDS011;6774;48.208;10.766;2022-07-23T07:11:31;6.67;;;6.07;;
13406;SDS011;6774;48.208;10.766;2022-07-23T07:13:59;5.93;;;5.63;;
13406;SDS011;6774;48.208;10.766;2022-07-23T07:16:27;6.37;;;5.97;;
13406;SDS011;6774;48.208;10.766;2022-07-23T07:18:58;5.70;;;5.40;;
13406;SDS011;6774;48.208;10.766;2022-07-23T07:21:27;5.63;;;5.10;;
13406;SDS011;6774;48.208;10.766;2022-07-23T07:23:58;5.63;;;5.23;;
13406;SDS011;6774;48.208;10.766;2022-07-23T07:26:25;5.33;;;4.93;;
13406;SDS011;6774;48.208;10.766;2022-07-23T07:28:53;5.87;;;5.57;;
13406;SDS011;6774;48.208;10.766;2022-07-23T07:31:21;7.40;;;6.87;;
13406;SDS011;6774;48.208;10.766;2022-07-23T07:33:49;5.40;;;5.10;;
13406;SDS011;6774;48.208;10.766;2022-07-23T07:36:16;7.10;;;6.43;;
13406;SDS011;6774;48.208;10.766;2022-07-23T07:38:44;5.83;;;5.43;;
13406;SDS011;6774;48.208;10.766;2022-07-23T07:41:16;5.80;;;5.43;;
13406;SDS011;6774;48.208;10.766;2022-07-23T07:43:49;5.23;;;4.40;;
13406;SDS011;6774;48.208;10.766;2022-07-23T07:46:17;4.97;;;4.63;;
13406;SDS011;6774;48.208;10.766;2022-07-23T07:48:45;4.50;;;4.20;;
13406;SDS011;6774;48.208;10.766;2022-07-23T07:51:13;4.07;;;3.77;;
13406;SDS011;6774;48.208;10.766;2022-07-23T07:53:40;4.10;;;3.90;;
13406;SDS011;6774;48.208;10.766;2022-07-23T07:56:11;4.07;;;3.87;;
13406;SDS011;6774;48.208;10.766;2022-07-23T07:58:40;6.40;;;5.87;;
13406;SDS011;6774;48.208;10.766;2022-07-23T08:01:08;4.53;;;4.33;;
13406;SDS011;6774;48.208;10.766;2022-07-23T08:03:35;4.53;;;4.23;;
13406;SDS011;6774;48.208;10.766;2022-07-23T08:06:03;4.53;;;4.13;;
13406;SDS011;6774;48.208;10.766;2022-07-23T08:08:31;6.33;;;5.93;;
13406;SDS011;6774;48.208;10.766;2022-07-23T08:10:59;4.23;;;3.93;;
13406;SDS011;6774;48.208;10.766;2022-07-23T08:13:27;5.03;;;4.57;;
13406;SDS011;6774;48.208;10.766;2022-07-23T08:15:56;4.53;;;4.23;;
13406;SDS011;6774;48.208;10.766;2022-07-23T08:18:24;7.40;;;4.70;;
13406;SDS011;6774;48.208;10.766;2022-07-23T08:20:52;4.10;;;3.90;;
13406;SDS011;6774;48.208;10.766;2022-07-23T08:23:20;4.73;;;4.53;;
13406;SDS011;6774;48.208;10.766;2022-07-23T08:25:54;5.03;;;4.73;;
13406;SDS011;6774;48.208;10.766;2022-07-23T08:28:23;4.53;;;4.33;;
13406;SDS011;6774;48.208;10.766;2022-07-23T08:30:51;4.83;;;4.63;;
13406;SDS011;6774;48.208;10.766;2022-07-23T08:33:20;5.60;;;5.20;;
13406;SDS011;6774;48.208;10.766;2022-07-23T08:35:59;5.27;;;4.97;;
13406;SDS011;6774;48.208;10.766;2022-07-23T08:38:29;5.00;;;4.80;;
13406;SDS011;6774;48.208;10.766;2022-07-23T08:40:58;6.57;;;6.27;;
13406;SDS011;6774;48.208;10.766;2022-07-23T08:43:26;6.33;;;6.03;;
13406;SDS011;6774;48.208;10.766;2022-07-23T08:45:58;5.87;;;5.57;;
13406;SDS011;6774;48.208;10.766;2022-07-23T08:48:29;6.73;;;6.23;;
13406;SDS011;6774;48.208;10.766;2022-07-23T08:50:59;6.07;;;5.77;;
13406;SDS011;6774;48.208;10.766;2022-07-23T08:53:28;4.80;;;4.60;;
13406;SDS011;6774;48.208;10.766;2022-07-23T08:55:58;5.33;;;4.93;;
13406;SDS011;6774;48.208;10.766;2022-07-23T08:58:28;4.77;;;4.47;;
13406;SDS011;6774;48.208;10.766;2022-07-23T09:00:56;6.63;;;5.68;;
13406;SDS011;6774;48.208;10.766;2022-07-23T09:03:26;6.67;;;6.27;;
13406;SDS011;6774;48.208;10.766;2022-07-23T09:05:57;5.57;;;5.28;;
13406;SDS011;6774;48.208;10.766;2022-07-23T09:08:33;6.23;;;5.57;;
13406;SDS011;6774;48.208;10.766;2022-07-23T09:11:02;4.95;;;4.75;;
13406;SDS011;6774;48.208;10.766;2022-07-23T09:13:32;4.65;;;4.35;;
13406;SDS011;6774;48.208;10.766;2022-07-23T09:16:03;6.13;;;5.47;;
13406;SDS011;6774;48.208;10.766;2022-07-23T09:18:35;4.32;;;4.13;;
13406;SDS011;6774;48.208;10.766;2022-07-23T09:21:10;5.28;;;4.93;;
13406;SDS011;6774;48.208;10.766;2022-07-23T09:23:45;5.00;;;4.10;;
13406;SDS011;6774;48.208;10.766;2022-07-23T09:26:19;4.22;;;4.03;;
13406;SDS011;6774;48.208;10.766;2022-07-23T09:28:58;4.80;;;4.50;;
13406;SDS011;6774;48.208;10.766;2022-07-23T09:31:31;4.65;;;4.35;;
13406;SDS011;6774;48.208;10.766;2022-07-23T09:34:07;4.13;;;3.92;;
13406;SDS011;6774;48.208;10.766;2022-07-23T09:36:38;5.40;;;5.13;;
13406;SDS011;6774;48.208;10.766;2022-07-23T09:39:06;5.63;;;5.15;;
13406;SDS011;6774;48.208;10.766;2022-07-23T09:41:36;5.35;;;5.05;;
13406;SDS011;6774;48.208;10.766;2022-07-23T09:44:06;4.78;;;4.25;;
13406;SDS011;6774;48.208;10.766;2022-07-23T09:46:38;4.28;;;4.07;;
13406;SDS011;6774;48.208;10.766;2022-07-23T09:51:54;4.85;;;4.63;;
13406;SDS011;6774;48.208;10.766;2022-07-23T09:54:25;4.75;;;4.35;;
13406;SDS011;6774;48.208;10.766;2022-07-23T09:56:59;5.53;;;5.07;;
13406;SDS011;6774;48.208;10.766;2022-07-23T09:59:31;3.83;;;3.63;;
13406;SDS011;6774;48.208;10.766;2022-07-23T10:02:00;4.68;;;4.47;;
13406;SDS011;6774;48.208;10.766;2022-07-23T10:04:38;4.88;;;4.65;;
13406;SDS011;6774;48.208;10.766;2022-07-23T10:07:22;4.53;;;4.28;;
13406;SDS011;6774;48.208;10.766;2022-07-23T10:10:31;5.63;;;5.22;;
13406;SDS011;6774;48.208;10.766;2022-07-23T10:13:29;4.78;;;4.57;;
13406;SDS011;6774;48.208;10.766;2022-07-23T10:16:16;5.00;;;4.72;;
13406;SDS011;6774;48.208;10.766;2022-07-23T10:18:53;5.15;;;4.63;;
13406;SDS011;6774;48.208;10.766;2022-07-23T10:21:24;4.65;;;4.22;;
13406;SDS011;6774;48.208;10.766;2022-07-23T10:24:01;5.55;;;5.15;;
13406;SDS011;6774;48.208;10.766;2022-07-23T10:26:38;6.93;;;5.45;;
13406;SDS011;6774;48.208;10.766;2022-07-23T10:29:18;5.28;;;4.80;;
13406;SDS011;6774;48.208;10.766;2022-07-23T10:31:58;5.28;;;4.88;;
13406;SDS011;6774;48.208;10.766;2022-07-23T10:34:34;5.75;;;5.35;;
13406;SDS011;6774;48.208;10.766;2022-07-23T10:37:07;5.25;;;4.82;;
13406;SDS011;6774;48.208;10.766;2022-07-23T10:39:49;5.30;;;5.07;;
13406;SDS011;6774;48.208;10.766;2022-07-23T10:42:36;5.72;;;5.43;;
13406;SDS011;6774;48.208;10.766;2022-07-23T10:47:52;5.88;;;5.47;;
13406;SDS011;6774;48.208;10.766;2022-07-23T10:50:21;5.63;;;5.22;;
13406;SDS011;6774;48.208;10.766;2022-07-23T10:55:42;5.82;;;5.53;;
13406;SDS011;6774;48.208;10.766;2022-07-23T10:58:12;5.68;;;5.38;;
13406;SDS011;6774;48.208;10.766;2022-07-23T11:00:48;6.03;;;4.88;;
13406;SDS011;6774;48.208;10.766;2022-07-23T11:06:08;6.10;;;5.20;;
13406;SDS011;6774;48.208;10.766;2022-07-23T11:08:38;5.50;;;5.20;;
13406;SDS011;6774;48.208;10.766;2022-07-23T11:11:11;5.95;;;5.38;;
13406;SDS011;6774;48.208;10.766;2022-07-23T11:13:48;4.65;;;4.35;;
13406;SDS011;6774;48.208;10.766;2022-07-23T11:16:17;6.45;;;6.05;;
13406;SDS011;6774;48.208;10.766;2022-07-23T11:18:57;7.00;;;5.20;;
13406;SDS011;6774;48.208;10.766;2022-07-23T11:21:40;8.75;;;6.38;;
13406;SDS011;6774;48.208;10.766;2022-07-23T11:24:09;6.40;;;5.97;;
13406;SDS011;6774;48.208;10.766;2022-07-23T11:26:48;5.63;;;5.32;;
13406;SDS011;6774;48.208;10.766;2022-07-23T11:37:56;6.07;;;5.68;;
13406;SDS011;6774;48.208;10.766;2022-07-23T11:40:31;6.65;;;6.00;;
13406;SDS011;6774;48.208;10.766;2022-07-23T11:43:01;6.68;;;6.28;;
13406;SDS011;6774;48.208;10.766;2022-07-23T11:45:31;6.65;;;6.15;;
13406;SDS011;6774;48.208;10.766;2022-07-23T11:48:02;6.47;;;6.15;;
13406;SDS011;6774;48.208;10.766;2022-07-23T11:50:31;5.88;;;5.57;;
13406;SDS011;6774;48.208;10.766;2022-07-23T11:53:00;6.07;;;5.57;;
13406;SDS011;6774;48.208;10.766;2022-07-23T11:55:28;7.00;;;6.57;;
13406;SDS011;6774;48.208;10.766;2022-07-23T11:57:56;7.15;;;6.57;;
13406;SDS011;6774;48.208;10.766;2022-07-23T12:00:28;6.60;;;6.30;;
13406;SDS011;6774;48.208;10.766;2022-07-23T12:03:01;6.28;;;5.88;;
13406;SDS011;6774;48.208;10.766;2022-07-23T12:05:30;4.88;;;4.68;;
13406;SDS011;6774;48.208;10.766;2022-07-23T12:08:00;6.57;;;5.95;;
13406;SDS011;6774;48.208;10.766;2022-07-23T12:10:33;6.80;;;5.78;;
13406;SDS011;6774;48.208;10.766;2022-07-23T12:13:02;8.48;;;6.40;;
13406;SDS011;6774;48.208;10.766;2022-07-23T12:15:33;6.70;;;6.30;;
13406;SDS011;6774;48.208;10.766;2022-07-23T12:18:04;8.15;;;7.63;;
13406;SDS011;6774;48.208;10.766;2022-07-23T12:20:35;7.65;;;6.82;;
13406;SDS011;6774;48.208;10.766;2022-07-23T12:23:06;6.47;;;6.07;;
13406;SDS011;6774;48.208;10.766;2022-07-23T12:25:35;6.55;;;6.10;;
13406;SDS011;6774;48.208;10.766;2022-07-23T12:28:06;5.13;;;4.80;;
13406;SDS011;6774;48.208;10.766;2022-07-23T12:30:38;5.55;;;5.20;;
13406;SDS011;6774;48.208;10.766;2022-07-23T12:33:08;6.25;;;5.85;;
13406;SDS011;6774;48.208;10.766;2022-07-23T12:35:37;5.13;;;4.93;;
13406;SDS011;6774;48.208;10.766;2022-07-23T12:38:08;8.88;;;5.93;;
13406;SDS011;6774;48.208;10.766;2022-07-23T12:40:40;6.30;;;5.93;;
13406;SDS011;6774;48.208;10.766;2022-07-23T12:43:11;5.93;;;5.63;;
13406;SDS011;6774;48.208;10.766;2022-07-23T12:45:47;5.20;;;4.80;;
13406;SDS011;6774;48.208;10.766;2022-07-23T12:48:21;6.25;;;5.95;;
13406;SDS011;6774;48.208;10.766;2022-07-23T12:50:57;7.40;;;5.85;;
13406;SDS011;6774;48.208;10.766;2022-07-23T12:53:27;10.07;;;6.68;;
13406;SDS011;6774;48.208;10.766;2022-07-23T12:55:58;6.35;;;5.75;;
13406;SDS011;6774;48.208;10.766;2022-07-23T12:58:46;7.45;;;6.95;;
13406;SDS011;6774;48.208;10.766;2022-07-23T13:01:28;6.13;;;5.72;;
13406;SDS011;6774;48.208;10.766;2022-07-23T13:04:03;6.85;;;6.30;;
13406;SDS011;6774;48.208;10.766;2022-07-23T13:06:52;6.35;;;6.05;;
13406;SDS011;6774;48.208;10.766;2022-07-23T13:09:26;7.70;;;7.30;;
13406;SDS011;6774;48.208;10.766;2022-07-23T13:11:59;5.57;;;5.28;;
13406;SDS011;6774;48.208;10.766;2022-07-23T13:14:28;6.22;;;5.93;;
13406;SDS011;6774;48.208;10.766;2022-07-23T13:16:58;8.13;;;7.50;;
13406;SDS011;6774;48.208;10.766;2022-07-23T13:19:26;7.05;;;6.65;;
13406;SDS011;6774;48.208;10.766;2022-07-23T13:21:54;7.38;;;6.78;;
13406;SDS011;6774;48.208;10.766;2022-07-23T13:24:22;6.97;;;6.57;;
13406;SDS011;6774;48.208;10.766;2022-07-23T13:26:50;6.50;;;6.20;;
13406;SDS011;6774;48.208;10.766;2022-07-23T13:29:18;7.10;;;6.63;;
13406;SDS011;6774;48.208;10.766;2022-07-23T13:31:47;7.10;;;6.45;;
13406;SDS011;6774;48.208;10.766;2022-07-23T13:34:17;6.30;;;5.90;;
13406;SDS011;6774;48.208;10.766;2022-07-23T13:36:45;7.93;;;7.35;;
13406;SDS011;6774;48.208;10.766;2022-07-23T13:39:13;7.28;;;6.13;;
13406;SDS011;6774;48.208;10.766;2022-07-23T13:41:41;7.63;;;7.13;;
13406;SDS011;6774;48.208;10.766;2022-07-23T13:44:14;6.80;;;6.45;;
13406;SDS011;6774;48.208;10.766;2022-07-23T13:46:43;6.22;;;5.78;;
13406;SDS011;6774;48.208;10.766;2022-07-23T13:49:13;7.40;;;6.65;;
13406;SDS011;6774;48.208;10.766;2022-07-23T13:51:42;5.93;;;5.55;;
13406;SDS011;6774;48.208;10.766;2022-07-23T13:54:10;5.57;;;5.38;;
13406;SDS011;6774;48.208;10.766;2022-07-23T13:56:38;6.80;;;6.40;;
13406;SDS011;6774;48.208;10.766;2022-07-23T13:59:06;7.35;;;6.80;;
13406;SDS011;6774;48.208;10.766;2022-07-23T14:01:34;6.88;;;6.47;;
13406;SDS011;6774;48.208;10.766;2022-07-23T14:04:21;6.65;;;6.28;;
13406;SDS011;6774;48.208;10.766;2022-07-23T14:06:51;6.95;;;6.60;;
13406;SDS011;6774;48.208;10.766;2022-07-23T14:09:20;7.32;;;6.78;;
13406;SDS011;6774;48.208;10.766;2022-07-23T14:11:47;8.80;;;7.72;;
13406;SDS011;6774;48.208;10.766;2022-07-23T14:14:17;6.82;;;6.43;;
13406;SDS011;6774;48.208;10.766;2022-07-23T14:16:45;6.50;;;6.20;;
13406;SDS011;6774;48.208;10.766;2022-07-23T14:19:14;7.82;;;7.25;;
13406;SDS011;6774;48.208;10.766;2022-07-23T14:21:42;6.30;;;6.00;;
13406;SDS011;6774;48.208;10.766;2022-07-23T14:24:11;7.35;;;6.95;;
13406;SDS011;6774;48.208;10.766;2022-07-23T14:26:39;6.72;;;6.43;;
13406;SDS011;6774;48.208;10.766;2022-07-23T14:29:08;5.80;;;5.43;;
13406;SDS011;6774;48.208;10.766;2022-07-23T14:31:37;6.25;;;5.95;;
13406;SDS011;6774;48.208;10.766;2022-07-23T14:34:06;8.43;;;7.82;;
13406;SDS011;6774;48.208;10.766;2022-07-23T14:36:33;6.57;;;6.28;;
13406;SDS011;6774;48.208;10.766;2022-07-23T14:39:05;8.60;;;7.93;;
13406;SDS011;6774;48.208;10.766;2022-07-23T14:41:37;6.35;;;6.05;;
13406;SDS011;6774;48.208;10.766;2022-07-23T14:44:05;7.57;;;7.18;;
13406;SDS011;6774;48.208;10.766;2022-07-23T14:46:35;6.53;;;6.18;;
13406;SDS011;6774;48.208;10.766;2022-07-23T14:49:03;6.78;;;6.47;;
13406;SDS011;6774;48.208;10.766;2022-07-23T14:51:33;7.63;;;7.05;;
13406;SDS011;6774;48.208;10.766;2022-07-23T14:54:01;7.13;;;6.72;;
13406;SDS011;6774;48.208;10.766;2022-07-23T14:56:29;7.47;;;6.95;;
13406;SDS011;6774;48.208;10.766;2022-07-23T14:58:58;6.35;;;5.95;;
13406;SDS011;6774;48.208;10.766;2022-07-23T15:01:27;6.53;;;6.13;;
13406;SDS011;6774;48.208;10.766;2022-07-23T15:03:55;6.50;;;6.15;;
13406;SDS011;6774;48.208;10.766;2022-07-23T15:06:43;7.97;;;7.47;;
13406;SDS011;6774;48.208;10.766;2022-07-23T15:09:11;7.45;;;6.80;;
13406;SDS011;6774;48.208;10.766;2022-07-23T15:11:40;6.32;;;6.03;;
13406;SDS011;6774;48.208;10.766;2022-07-23T15:14:10;6.43;;;6.13;;
13406;SDS011;6774;48.208;10.766;2022-07-23T15:16:51;6.35;;;5.90;;
13406;SDS011;6774;48.208;10.766;2022-07-23T15:19:19;6.68;;;6.35;;
13406;SDS011;6774;48.208;10.766;2022-07-23T15:21:46;7.45;;;6.93;;
13406;SDS011;6774;48.208;10.766;2022-07-23T15:24:15;7.22;;;6.72;;
13406;SDS011;6774;48.208;10.766;2022-07-23T15:26:43;6.70;;;6.22;;
13406;SDS011;6774;48.208;10.766;2022-07-23T15:29:13;8.52;;;8.00;;